Terminal Aerodrome Forecast
Issued by NWS Cleveland, OH

Home | Current Version | Previous Version | Graphics & Text | Print | Product List | Glossary On
Versions: 1 2 3 4 5 6 7 8 9 10 11 12 13 14 15 16 17 18 19 20 21 22 23 24 25 26 27 28 29 30
000
FTUS41 KCLE 182300
TAFCLE
TAF
KCLE 182328Z 1900/2006 04009KT P6SM BKN200
     FM191400 10012G18KT P6SM BKN120
     FM191900 11015G25KT 6SM -SHRA BKN060 OVC100
     FM192100 12016G26KT 4SM -SHRA BR BKN020 OVC050
     FM192300 12016G26KT 3SM -SHRA BR BKN010 OVC025
     FM200500 18016G26KT 3SM -SHRA BR BKN010 OVC025=

USA.gov is the U.S. government's official web portal to all federal, state and local government web resources and services.